Sparwood, Canada
Current Conditions -  °F | °C
As of 1:00 PM on Saturday 25 Oct 2014 (Local Time) from CYXC Reporting Station
Broken Clouds Broken Clouds  
Wind Chill: 44°   Ceiling: 25000
Heat Index: 46°   Visibility: 25mi
Dew Point: 34°   Wind: 5mph
Humidity: 62%   Direction: 100°E
Pressure: 29.78"   Gusts: NA
Location:  49.72°N, 114.89°W
Report Text: CYXC 251900Z 10004KT 040V140 25SM FEW050 FEW160 BKN250 08/01 A2978 RMK SC1AC1CI4 SLP100
Loading
Personal Weather Stations






























Interactive Weather Map New forecast layout! Learn more

10-Day Weather Forecast

Advertisements
Track Severe Weather on mobile